X  Tanca Dades meteorològiques de l'aviació METAR     EDDK Cologne Bonn Airport
Temperatura
18°C Temperatura
9°C Rosada
56% Humitat



Vent
13 KM/H
8 MPH
4 M/S
7 NUS



200°
SSO
Condicions actuals

Sense núvols Sense núvols
Pressió 1017.95 (hPa) - 30.06 (inHg)
Visibilitat 6 (milla) - 9.7 (km)
Aeroport
Codi aeroport EDDK

Ubicació: Cologne Bonn Airport
Distància: 56 (km)

Metar:
EDDK 281250Z AUTO 20007KT 160V250 CAVOK 18/09 Q1018 NOSIG

Temps: 2024-05-28 14:50 CEST